createdAt,value
2022-10-05T00:03:20.166Z,95.28
2022-10-05T00:08:19.066Z,95.59
2022-10-05T00:13:19.127Z,95.28
2022-10-05T00:18:18.861Z,95.34
2022-10-05T00:23:18.877Z,95.23
2022-10-05T00:28:18.914Z,95.34
2022-10-05T00:33:18.830Z,95.34
2022-10-05T00:38:18.641Z,95.44
2022-10-05T00:43:18.732Z,95.23
2022-10-05T00:48:18.584Z,95.29
2022-10-05T00:53:18.497Z,95.23
2022-10-05T00:58:18.485Z,94.93
2022-10-05T01:03:18.360Z,95.23
2022-10-05T01:08:18.397Z,95.23
2022-10-05T01:13:18.278Z,95.60
2022-10-05T01:18:18.225Z,95.80
2022-10-05T01:23:18.332Z,95.80
2022-10-05T01:28:18.107Z,95.90
2022-10-05T01:33:18.047Z,96.01
2022-10-05T01:38:17.933Z,95.80
2022-10-05T01:43:17.914Z,96.01
2022-10-05T01:48:17.841Z,95.80
2022-10-05T01:53:17.798Z,95.80
2022-10-05T01:58:17.720Z,95.96
2022-10-05T02:03:17.681Z,95.76
2022-10-05T02:08:17.579Z,95.04
2022-10-05T02:13:17.557Z,95.65
2022-10-05T02:18:17.573Z,95.25
2022-10-05T02:23:17.512Z,95.15
2022-10-05T02:28:17.520Z,95.35
2022-10-05T02:33:17.297Z,95.29
2022-10-05T02:38:17.268Z,95.80
2022-10-05T02:43:17.246Z,95.86
2022-10-05T02:48:17.180Z,95.45
2022-10-05T02:53:17.112Z,95.45
2022-10-05T02:58:17.223Z,95.15
2022-10-05T03:03:17.027Z,95.15
2022-10-05T03:08:17.091Z,94.79
2022-10-05T03:13:16.925Z,94.79
2022-10-05T03:18:16.830Z,94.65
2022-10-05T03:23:16.810Z,93.93
2022-10-05T03:28:22.703Z,93.63
2022-10-05T03:33:39.384Z,93.43
2022-10-05T03:38:16.682Z,92.91
2022-10-05T03:43:47.547Z,93.43
2022-10-05T03:48:19.511Z,93.43
2022-10-05T03:53:18.621Z,93.67
2022-10-05T03:58:18.127Z,93.88
2022-10-05T04:03:19.806Z,94.14
2022-10-05T04:08:17.100Z,93.43
2022-10-05T04:13:16.305Z,93.32
2022-10-05T04:18:18.343Z,93.47
2022-10-05T04:23:16.619Z,93.88
2022-10-05T04:28:17.175Z,94.08
2022-10-05T04:33:16.260Z,93.67
2022-10-05T04:38:30.290Z,93.26
2022-10-05T04:43:15.890Z,93.67
2022-10-05T04:48:15.942Z,93.67
2022-10-05T04:53:15.772Z,93.63
2022-10-05T04:58:19.126Z,93.43
2022-10-05T05:03:15.663Z,93.73
2022-10-05T05:08:15.746Z,93.73
2022-10-05T05:13:15.609Z,93.43
2022-10-05T05:18:15.495Z,93.32
2022-10-05T05:23:15.455Z,93.52
2022-10-05T05:28:15.463Z,93.22
2022-10-05T05:33:15.563Z,93.32
2022-10-05T05:38:15.406Z,93.48
2022-10-05T05:43:15.481Z,93.07
2022-10-05T05:48:15.298Z,92.87
2022-10-05T05:53:15.182Z,91.97
2022-10-05T05:58:15.152Z,91.46
2022-10-05T06:03:15.155Z,91.46
2022-10-05T06:08:15.092Z,92.11
2022-10-05T06:13:14.924Z,92.07
2022-10-05T06:18:14.934Z,91.11
2022-10-05T06:23:15.305Z,90.50
2022-10-05T06:28:14.865Z,90.46
2022-10-05T06:33:14.745Z,90.56
2022-10-05T06:38:14.927Z,90.36
2022-10-05T06:43:15.768Z,89.61
2022-10-05T06:48:14.511Z,88.75
2022-10-05T06:53:14.670Z,88.30
2022-10-05T06:58:14.621Z,88.10
2022-10-05T07:03:14.473Z,87.75
2022-10-05T07:08:14.569Z,87.30
2022-10-05T07:13:18.815Z,86.19
2022-10-05T07:18:14.178Z,86.05
2022-10-05T07:23:14.243Z,84.83
2022-10-05T07:28:14.252Z,84.58
2022-10-05T07:33:14.125Z,84.48
2022-10-05T07:38:13.933Z,83.98
2022-10-05T07:43:14.025Z,83.53
2022-10-05T07:48:13.850Z,83.43
2022-10-05T07:53:13.892Z,83.83
2022-10-05T07:58:13.737Z,83.63
2022-10-05T08:03:14.988Z,83.73
2022-10-05T08:08:15.540Z,82.72
2022-10-05T08:13:13.831Z,82.78
2022-10-05T08:18:13.554Z,80.96
2022-10-05T08:23:13.805Z,81.02
2022-10-05T08:28:13.570Z,79.91
2022-10-05T08:33:13.419Z,80.24
2022-10-05T08:38:13.393Z,80.10
2022-10-05T08:43:13.280Z,79.59
2022-10-05T08:48:13.143Z,78.48
2022-10-05T08:53:13.240Z,77.84
2022-10-05T08:58:14.220Z,76.89
2022-10-05T09:03:13.025Z,76.18
2022-10-05T09:08:13.016Z,76.48
2022-10-05T09:13:13.151Z,75.68
2022-10-05T09:18:12.839Z,75.98
2022-10-05T09:23:12.863Z,76.15
2022-10-05T09:28:12.754Z,74.63
2022-10-05T09:33:12.740Z,74.16
2022-10-05T09:38:12.652Z,75.13
2022-10-05T09:43:12.637Z,74.05
2022-10-05T09:48:12.552Z,74.05
2022-10-05T09:53:12.435Z,73.35
2022-10-05T09:58:12.483Z,73.38
2022-10-05T10:03:12.374Z,73.89
2022-10-05T10:08:12.306Z,73.99
2022-10-05T10:13:12.316Z,73.25
2022-10-05T10:18:19.087Z,74.16
2022-10-05T10:23:12.184Z,73.75
2022-10-05T10:28:12.067Z,73.75
2022-10-05T10:33:12.027Z,73.25
2022-10-05T10:38:14.193Z,73.58
2022-10-05T10:43:12.004Z,74.22
2022-10-05T10:48:11.906Z,72.51
2022-10-05T10:53:11.837Z,73.62
2022-10-05T10:58:16.102Z,72.38
2022-10-05T11:03:12.961Z,72.74
2022-10-05T11:08:11.708Z,70.96
2022-10-05T11:13:11.656Z,68.48
2022-10-05T11:18:11.635Z,68.59
2022-10-05T11:23:11.480Z,68.75
2022-10-05T11:28:11.451Z,69.52
2022-10-05T11:33:11.361Z,68.21
2022-10-05T11:38:11.324Z,68.55
2022-10-05T11:43:11.270Z,68.15
2022-10-05T11:48:11.284Z,69.89
2022-10-05T11:53:11.176Z,68.65
2022-10-05T11:58:11.267Z,68.95
2022-10-05T12:03:11.196Z,68.32
2022-10-05T12:08:11.275Z,68.15
2022-10-05T12:13:10.915Z,68.18
2022-10-05T12:18:10.905Z,67.58
2022-10-05T12:23:10.979Z,68.02
2022-10-05T12:28:10.936Z,67.48
2022-10-05T12:33:10.758Z,67.45
2022-10-05T12:38:11.852Z,67.28
2022-10-05T12:43:10.965Z,67.25
2022-10-05T12:48:10.527Z,67.05
2022-10-05T12:53:10.480Z,66.71
2022-10-05T12:58:10.464Z,66.11
2022-10-05T13:03:12.095Z,65.54
2022-10-05T13:08:10.514Z,65.41
2022-10-05T13:13:10.296Z,65.38
2022-10-05T13:18:10.304Z,64.07
2022-10-05T13:23:11.328Z,65.01
2022-10-05T13:28:10.298Z,65.01
2022-10-05T13:33:10.112Z,64.61
2022-10-05T13:38:11.675Z,65.04
2022-10-05T13:43:09.982Z,64.27
2022-10-05T13:48:10.012Z,64.37
2022-10-05T13:53:09.949Z,64.84
2022-10-05T13:58:09.929Z,64.84
2022-10-05T14:03:09.807Z,65.64
2022-10-05T14:08:09.722Z,65.54
2022-10-05T14:13:09.680Z,65.84
2022-10-05T14:18:09.609Z,66.08
2022-10-05T14:23:09.545Z,66.08
2022-10-05T14:28:09.518Z,66.71
2022-10-05T14:33:09.414Z,67.11
2022-10-05T14:38:09.462Z,67.51
2022-10-05T14:43:12.800Z,67.51
2022-10-05T14:48:09.231Z,67.91
2022-10-05T14:53:09.370Z,68.45
2022-10-05T14:58:09.379Z,69.06
2022-10-05T15:03:09.666Z,69.35
2022-10-05T15:08:09.874Z,69.56
2022-10-05T15:13:11.438Z,70.26
2022-10-05T15:18:08.994Z,70.59
2022-10-05T15:23:19.607Z,70.96
2022-10-05T15:28:08.957Z,71.30
2022-10-05T15:33:08.691Z,71.70
2022-10-05T15:38:08.634Z,71.90
2022-10-05T15:43:08.620Z,72.10
2022-10-05T15:48:08.516Z,71.90
2022-10-05T15:53:08.559Z,72.10
2022-10-05T15:58:08.437Z,72.41
2022-10-05T16:03:08.423Z,72.54
2022-10-05T16:08:08.390Z,72.44
2022-10-05T16:13:08.292Z,73.21
2022-10-05T16:18:08.208Z,73.35
2022-10-05T16:23:08.199Z,73.65
2022-10-05T16:28:08.257Z,74.15
2022-10-05T16:33:10.704Z,74.58
2022-10-05T16:38:08.110Z,75.59
2022-10-05T16:43:08.031Z,76.03
2022-10-05T16:48:08.119Z,76.27
2022-10-05T16:53:08.368Z,74.89
2022-10-05T16:58:08.991Z,74.15
2022-10-05T17:03:08.188Z,74.08
2022-10-05T17:08:08.426Z,74.29
2022-10-05T17:13:08.901Z,74.89
2022-10-05T17:18:07.655Z,75.33
2022-10-05T17:23:07.628Z,75.96
2022-10-05T17:28:09.643Z,76.47
2022-10-05T17:33:08.563Z,76.57
2022-10-05T17:38:08.443Z,75.96
2022-10-05T17:43:08.275Z,75.96
2022-10-05T17:48:07.277Z,76.40
2022-10-05T17:53:07.645Z,76.10
2022-10-05T17:58:07.421Z,76.51
2022-10-05T18:03:08.235Z,76.31
2022-10-05T18:08:07.345Z,76.40
2022-10-05T18:13:08.245Z,75.90
2022-10-05T18:18:07.114Z,74.29
2022-10-05T18:23:06.893Z,73.55
2022-10-05T18:28:06.849Z,73.25
2022-10-05T18:33:06.918Z,73.55
2022-10-05T18:38:07.021Z,73.25
2022-10-05T18:43:07.929Z,73.45
2022-10-05T18:48:12.015Z,73.58
2022-10-05T18:53:06.497Z,74.08
2022-10-05T18:58:06.654Z,73.99
2022-10-05T19:03:07.581Z,74.49
2022-10-05T19:08:06.486Z,74.32
2022-10-05T19:13:10.963Z,74.02
2022-10-05T19:18:07.320Z,74.32
2022-10-05T19:23:06.219Z,74.22
2022-10-05T19:28:06.271Z,74.32
2022-10-05T19:33:08.289Z,74.52
2022-10-05T19:38:06.275Z,73.99
2022-10-05T19:43:06.147Z,74.59
2022-10-05T19:48:06.106Z,75.03
2022-10-05T19:53:05.944Z,75.43
2022-10-05T19:58:13.513Z,74.63
2022-10-05T20:03:08.946Z,74.79
2022-10-05T20:08:05.891Z,74.79
2022-10-05T20:13:29.823Z,73.55
2022-10-05T20:18:07.792Z,73.75
2022-10-05T20:23:09.051Z,74.59
2022-10-05T20:28:07.100Z,73.95
2022-10-05T20:33:05.932Z,74.35
2022-10-05T20:38:05.446Z,74.26
2022-10-05T20:43:05.866Z,74.76
2022-10-05T20:48:05.656Z,74.66
2022-10-05T20:53:08.448Z,74.96
2022-10-05T20:58:06.398Z,74.86
2022-10-05T21:03:37.060Z,75.40
2022-10-05T21:08:05.798Z,75.60
2022-10-05T21:13:05.083Z,75.80
2022-10-05T21:18:05.035Z,75.36
2022-10-05T21:23:04.887Z,75.46
2022-10-05T21:30:49.026Z,75.06
2022-10-05T21:35:49.019Z,75.67
2022-10-05T21:40:48.962Z,76.67
2022-10-05T21:45:48.882Z,76.97
2022-10-05T21:50:48.789Z,77.17
2022-10-05T21:55:48.763Z,77.78
2022-10-05T22:00:48.737Z,77.17
2022-10-05T22:05:48.807Z,77.68
2022-10-05T22:10:48.707Z,82.45
2022-10-05T22:15:48.629Z,86.81
2022-10-05T22:20:48.539Z,89.26
2022-10-05T22:25:48.437Z,91.22
2022-10-05T22:30:48.446Z,91.93
2022-10-05T22:35:48.293Z,92.18
2022-10-05T22:40:48.295Z,92.63
2022-10-05T22:45:48.259Z,91.82
2022-10-05T22:50:48.259Z,91.66
2022-10-05T22:55:48.252Z,92.26
2022-10-05T23:00:57.970Z,91.70
2022-10-05T23:05:49.049Z,92.10
2022-10-05T23:10:47.909Z,92.00
2022-10-05T23:15:47.888Z,92.26
2022-10-05T23:20:47.790Z,93.26
2022-10-05T23:25:50.117Z,94.62
2022-10-05T23:30:47.991Z,93.70
2022-10-05T23:35:47.813Z,94.35
2022-10-05T23:40:47.841Z,93.89
2022-10-05T23:45:50.298Z,93.67
2022-10-05T23:50:47.456Z,94.18
2022-10-05T23:55:47.390Z,93.62
